Holiday Shores, Illinois
Current Conditions -  °F | °C
As of 4:50 PM on Tuesday 21 Oct 2014 (Local Time) from KALN Reporting Station
Clear Clear  
Wind Chill: 64°   Ceiling: Unl
Heat Index: 64°   Visibility: 10mi
Dew Point: 36°   Wind: 9mph
Humidity: 34%   Direction: 20°NNE
Pressure: 30.12"   Gusts: NA
Location:  38.8031°N, 89.9742°W
Report Text: KALN 212150Z 02008KT 10SM SKC 18/02 A3012
Loading
Personal Weather Stations






























Interactive Weather Map
Tropical Storm Tracking
New forecast layout! Learn more

10-Day Weather Forecast

Advertisements
Track Severe Weather on mobile